sensor_id;sensor_type;location;lat;lon;timestamp;temperature;humidity
25192;DHT22;13143;50.924;5.320;2023-06-26T00:00:00;27.10;84.50
25192;DHT22;13143;50.924;5.320;2023-06-26T00:02:26;27.00;83.80
25192;DHT22;13143;50.924;5.320;2023-06-26T00:04:52;27.00;83.80
25192;DHT22;13143;50.924;5.320;2023-06-26T00:07:20;27.00;83.80
25192;DHT22;13143;50.924;5.320;2023-06-26T00:09:46;27.00;83.80
25192;DHT22;13143;50.924;5.320;2023-06-26T00:12:12;26.90;83.70
25192;DHT22;13143;50.924;5.320;2023-06-26T00:14:38;27.00;83.70
25192;DHT22;13143;50.924;5.320;2023-06-26T00:17:07;26.90;83.50
25192;DHT22;13143;50.924;5.320;2023-06-26T00:19:33;26.90;83.50
25192;DHT22;13143;50.924;5.320;2023-06-26T00:21:59;26.80;83.50
25192;DHT22;13143;50.924;5.320;2023-06-26T00:24:25;26.80;83.40
25192;DHT22;13143;50.924;5.320;2023-06-26T00:26:51;26.80;83.50
25192;DHT22;13143;50.924;5.320;2023-06-26T00:29:17;26.70;83.60
25192;DHT22;13143;50.924;5.320;2023-06-26T00:31:43;26.70;83.70
25192;DHT22;13143;50.924;5.320;2023-06-26T00:34:10;26.60;83.90
25192;DHT22;13143;50.924;5.320;2023-06-26T00:36:36;26.60;84.20
25192;DHT22;13143;50.924;5.320;2023-06-26T00:39:02;26.60;84.40
25192;DHT22;13143;50.924;5.320;2023-06-26T00:41:29;26.50;84.40
25192;DHT22;13143;50.924;5.320;2023-06-26T00:43:55;26.50;84.80
25192;DHT22;13143;50.924;5.320;2023-06-26T00:46:21;26.50;85.00
25192;DHT22;13143;50.924;5.320;2023-06-26T00:48:51;26.40;85.20
25192;DHT22;13143;50.924;5.320;2023-06-26T00:51:17;26.40;85.20
25192;DHT22;13143;50.924;5.320;2023-06-26T00:53:44;26.50;85.30
25192;DHT22;13143;50.924;5.320;2023-06-26T00:56:11;26.40;85.30
25192;DHT22;13143;50.924;5.320;2023-06-26T00:58:37;26.40;85.40
25192;DHT22;13143;50.924;5.320;2023-06-26T01:01:03;26.30;85.60
25192;DHT22;13143;50.924;5.320;2023-06-26T01:03:31;26.20;85.80
25192;DHT22;13143;50.924;5.320;2023-06-26T01:05:59;26.20;86.00
25192;DHT22;13143;50.924;5.320;2023-06-26T01:08:25;26.10;86.00
25192;DHT22;13143;50.924;5.320;2023-06-26T01:10:52;26.10;86.10
25192;DHT22;13143;50.924;5.320;2023-06-26T01:13:18;26.10;86.10
25192;DHT22;13143;50.924;5.320;2023-06-26T01:15:46;26.10;86.30
25192;DHT22;13143;50.924;5.320;2023-06-26T01:18:12;26.10;86.20
25192;DHT22;13143;50.924;5.320;2023-06-26T01:20:41;26.00;86.30
25192;DHT22;13143;50.924;5.320;2023-06-26T01:26:16;25.90;86.50
25192;DHT22;13143;50.924;5.320;2023-06-26T01:28:43;25.80;86.50
25192;DHT22;13143;50.924;5.320;2023-06-26T01:31:11;25.80;86.50
25192;DHT22;13143;50.924;5.320;2023-06-26T01:33:38;25.80;86.60
25192;DHT22;13143;50.924;5.320;2023-06-26T01:36:05;25.80;86.50
25192;DHT22;13143;50.924;5.320;2023-06-26T01:38:32;25.80;86.50
25192;DHT22;13143;50.924;5.320;2023-06-26T01:41:01;25.80;86.70
25192;DHT22;13143;50.924;5.320;2023-06-26T01:46:06;25.80;87.40
25192;DHT22;13143;50.924;5.320;2023-06-26T01:48:44;25.70;87.40
25192;DHT22;13143;50.924;5.320;2023-06-26T01:51:14;25.70;87.90
25192;DHT22;13143;50.924;5.320;2023-06-26T01:53:46;25.60;88.30
25192;DHT22;13143;50.924;5.320;2023-06-26T01:56:13;25.60;88.40
25192;DHT22;13143;50.924;5.320;2023-06-26T01:58:46;25.60;88.60
25192;DHT22;13143;50.924;5.320;2023-06-26T02:01:13;25.50;89.10
25192;DHT22;13143;50.924;5.320;2023-06-26T02:03:39;25.50;89.30
25192;DHT22;13143;50.924;5.320;2023-06-26T02:06:05;25.50;89.60
25192;DHT22;13143;50.924;5.320;2023-06-26T02:08:31;25.40;89.70
25192;DHT22;13143;50.924;5.320;2023-06-26T02:10:57;25.40;89.70
25192;DHT22;13143;50.924;5.320;2023-06-26T02:13:23;25.30;89.80
25192;DHT22;13143;50.924;5.320;2023-06-26T02:15:49;25.30;90.00
25192;DHT22;13143;50.924;5.320;2023-06-26T02:18:15;25.30;90.00
25192;DHT22;13143;50.924;5.320;2023-06-26T02:20:42;25.20;90.00
25192;DHT22;13143;50.924;5.320;2023-06-26T02:23:12;25.20;90.00
25192;DHT22;13143;50.924;5.320;2023-06-26T02:25:38;25.20;89.90
25192;DHT22;13143;50.924;5.320;2023-06-26T02:28:04;25.10;89.90
25192;DHT22;13143;50.924;5.320;2023-06-26T02:30:30;25.00;89.90
25192;DHT22;13143;50.924;5.320;2023-06-26T02:32:57;25.00;89.90
25192;DHT22;13143;50.924;5.320;2023-06-26T02:35:23;24.90;89.60
25192;DHT22;13143;50.924;5.320;2023-06-26T02:37:49;25.00;89.30
25192;DHT22;13143;50.924;5.320;2023-06-26T02:40:15;24.90;89.50
25192;DHT22;13143;50.924;5.320;2023-06-26T02:42:41;24.80;89.40
25192;DHT22;13143;50.924;5.320;2023-06-26T02:45:07;24.80;89.40
25192;DHT22;13143;50.924;5.320;2023-06-26T02:47:34;24.80;89.00
25192;DHT22;13143;50.924;5.320;2023-06-26T02:50:00;24.80;88.90
25192;DHT22;13143;50.924;5.320;2023-06-26T02:52:26;24.70;88.90
25192;DHT22;13143;50.924;5.320;2023-06-26T02:54:54;24.70;88.70
25192;DHT22;13143;50.924;5.320;2023-06-26T02:57:20;24.70;88.70
25192;DHT22;13143;50.924;5.320;2023-06-26T02:59:46;24.70;88.80
25192;DHT22;13143;50.924;5.320;2023-06-26T03:02:12;24.60;88.70
25192;DHT22;13143;50.924;5.320;2023-06-26T03:04:41;24.60;88.90
25192;DHT22;13143;50.924;5.320;2023-06-26T03:07:10;24.50;88.90
25192;DHT22;13143;50.924;5.320;2023-06-26T03:09:36;24.50;88.90
25192;DHT22;13143;50.924;5.320;2023-06-26T03:12:02;24.50;89.00
25192;DHT22;13143;50.924;5.320;2023-06-26T03:14:32;24.40;88.80
25192;DHT22;13143;50.924;5.320;2023-06-26T03:16:58;24.40;88.90
25192;DHT22;13143;50.924;5.320;2023-06-26T03:19:24;24.40;88.80
25192;DHT22;13143;50.924;5.320;2023-06-26T03:21:51;24.40;88.80
25192;DHT22;13143;50.924;5.320;2023-06-26T03:24:17;24.30;88.70
25192;DHT22;13143;50.924;5.320;2023-06-26T03:26:43;24.30;88.80
25192;DHT22;13143;50.924;5.320;2023-06-26T03:29:09;24.30;88.80
25192;DHT22;13143;50.924;5.320;2023-06-26T03:31:35;24.20;88.90
25192;DHT22;13143;50.924;5.320;2023-06-26T03:34:01;24.20;89.10
25192;DHT22;13143;50.924;5.320;2023-06-26T03:36:27;24.10;89.20
25192;DHT22;13143;50.924;5.320;2023-06-26T03:38:53;24.10;89.40
25192;DHT22;13143;50.924;5.320;2023-06-26T03:41:23;24.00;89.60
25192;DHT22;13143;50.924;5.320;2023-06-26T03:43:49;24.00;89.70
25192;DHT22;13143;50.924;5.320;2023-06-26T03:46:15;24.00;89.90
25192;DHT22;13143;50.924;5.320;2023-06-26T03:48:41;23.90;89.80
25192;DHT22;13143;50.924;5.320;2023-06-26T03:51:08;24.00;90.00
25192;DHT22;13143;50.924;5.320;2023-06-26T03:53:34;23.90;90.10
25192;DHT22;13143;50.924;5.320;2023-06-26T03:56:02;23.80;90.10
25192;DHT22;13143;50.924;5.320;2023-06-26T03:58:28;23.80;90.30
25192;DHT22;13143;50.924;5.320;2023-06-26T04:00:54;23.80;90.40
25192;DHT22;13143;50.924;5.320;2023-06-26T04:03:21;23.70;90.70
25192;DHT22;13143;50.924;5.320;2023-06-26T04:05:47;23.70;90.60
25192;DHT22;13143;50.924;5.320;2023-06-26T04:08:13;23.60;90.90
25192;DHT22;13143;50.924;5.320;2023-06-26T04:10:39;23.60;91.00
25192;DHT22;13143;50.924;5.320;2023-06-26T04:13:05;23.60;91.10
25192;DHT22;13143;50.924;5.320;2023-06-26T04:15:31;23.60;91.10
25192;DHT22;13143;50.924;5.320;2023-06-26T04:17:58;23.50;91.40
25192;DHT22;13143;50.924;5.320;2023-06-26T04:20:26;23.50;91.70
25192;DHT22;13143;50.924;5.320;2023-06-26T04:22:52;23.50;91.70
25192;DHT22;13143;50.924;5.320;2023-06-26T04:25:18;23.50;91.80
25192;DHT22;13143;50.924;5.320;2023-06-26T04:27:44;23.40;91.90
25192;DHT22;13143;50.924;5.320;2023-06-26T04:30:11;23.40;92.10
25192;DHT22;13143;50.924;5.320;2023-06-26T04:32:38;23.30;92.50
25192;DHT22;13143;50.924;5.320;2023-06-26T04:35:04;23.30;92.80
25192;DHT22;13143;50.924;5.320;2023-06-26T04:37:30;23.30;92.90
25192;DHT22;13143;50.924;5.320;2023-06-26T04:39:56;23.20;93.00
25192;DHT22;13143;50.924;5.320;2023-06-26T04:42:22;23.20;93.20
25192;DHT22;13143;50.924;5.320;2023-06-26T04:44:49;23.20;93.10
25192;DHT22;13143;50.924;5.320;2023-06-26T04:47:15;23.20;93.40
25192;DHT22;13143;50.924;5.320;2023-06-26T04:49:41;23.20;93.50
25192;DHT22;13143;50.924;5.320;2023-06-26T04:52:12;23.20;93.60
25192;DHT22;13143;50.924;5.320;2023-06-26T04:54:41;23.10;94.00
25192;DHT22;13143;50.924;5.320;2023-06-26T04:57:07;23.10;94.40
25192;DHT22;13143;50.924;5.320;2023-06-26T04:59:34;23.10;94.00
25192;DHT22;13143;50.924;5.320;2023-06-26T05:02:00;23.10;94.20
25192;DHT22;13143;50.924;5.320;2023-06-26T05:04:26;23.00;94.30
25192;DHT22;13143;50.924;5.320;2023-06-26T05:06:52;23.10;94.30
25192;DHT22;13143;50.924;5.320;2023-06-26T05:09:19;23.00;94.90
25192;DHT22;13143;50.924;5.320;2023-06-26T05:11:45;23.00;94.70
25192;DHT22;13143;50.924;5.320;2023-06-26T05:14:11;23.00;94.60
25192;DHT22;13143;50.924;5.320;2023-06-26T05:16:39;23.00;95.00
25192;DHT22;13143;50.924;5.320;2023-06-26T05:19:05;23.00;95.00
25192;DHT22;13143;50.924;5.320;2023-06-26T05:21:31;23.00;95.50
25192;DHT22;13143;50.924;5.320;2023-06-26T05:23:57;22.90;95.30
25192;DHT22;13143;50.924;5.320;2023-06-26T05:26:25;22.90;95.30
25192;DHT22;13143;50.924;5.320;2023-06-26T05:28:51;22.90;95.80
25192;DHT22;13143;50.924;5.320;2023-06-26T05:31:18;22.80;96.20
25192;DHT22;13143;50.924;5.320;2023-06-26T05:33:44;22.80;96.30
25192;DHT22;13143;50.924;5.320;2023-06-26T05:36:12;22.80;96.40
25192;DHT22;13143;50.924;5.320;2023-06-26T05:38:39;22.70;96.60
25192;DHT22;13143;50.924;5.320;2023-06-26T05:41:06;22.80;96.60
25192;DHT22;13143;50.924;5.320;2023-06-26T05:43:32;22.70;96.60
25192;DHT22;13143;50.924;5.320;2023-06-26T05:45:58;22.80;96.90
25192;DHT22;13143;50.924;5.320;2023-06-26T05:48:24;22.70;96.60
25192;DHT22;13143;50.924;5.320;2023-06-26T05:50:51;22.70;97.10
25192;DHT22;13143;50.924;5.320;2023-06-26T05:53:17;22.70;97.40
25192;DHT22;13143;50.924;5.320;2023-06-26T05:55:43;22.70;97.20
25192;DHT22;13143;50.924;5.320;2023-06-26T05:58:10;22.60;97.30
25192;DHT22;13143;50.924;5.320;2023-06-26T06:00:39;22.60;97.40
25192;DHT22;13143;50.924;5.320;2023-06-26T06:03:05;22.60;97.30
25192;DHT22;13143;50.924;5.320;2023-06-26T06:05:31;22.60;97.00
25192;DHT22;13143;50.924;5.320;2023-06-26T06:07:57;22.60;97.40
25192;DHT22;13143;50.924;5.320;2023-06-26T06:10:23;22.60;97.60
25192;DHT22;13143;50.924;5.320;2023-06-26T06:12:50;22.60;97.50
25192;DHT22;13143;50.924;5.320;2023-06-26T06:15:16;22.60;97.30
25192;DHT22;13143;50.924;5.320;2023-06-26T06:17:42;22.60;97.40
25192;DHT22;13143;50.924;5.320;2023-06-26T06:20:08;22.60;97.20
25192;DHT22;13143;50.924;5.320;2023-06-26T06:22:34;22.50;97.30
25192;DHT22;13143;50.924;5.320;2023-06-26T06:25:00;22.50;97.50
25192;DHT22;13143;50.924;5.320;2023-06-26T06:27:27;22.50;97.40
25192;DHT22;13143;50.924;5.320;2023-06-26T06:29:54;22.50;97.60
25192;DHT22;13143;50.924;5.320;2023-06-26T06:32:20;22.50;97.60
25192;DHT22;13143;50.924;5.320;2023-06-26T06:34:46;22.40;97.80
25192;DHT22;13143;50.924;5.320;2023-06-26T06:37:12;22.40;97.60
25192;DHT22;13143;50.924;5.320;2023-06-26T06:39:38;22.40;97.90
25192;DHT22;13143;50.924;5.320;2023-06-26T06:42:04;22.40;97.90
25192;DHT22;13143;50.924;5.320;2023-06-26T06:44:30;22.40;97.90
25192;DHT22;13143;50.924;5.320;2023-06-26T06:46:56;22.40;97.70
25192;DHT22;13143;50.924;5.320;2023-06-26T06:49:22;22.40;97.70
25192;DHT22;13143;50.924;5.320;2023-06-26T06:51:49;22.40;97.60
25192;DHT22;13143;50.924;5.320;2023-06-26T06:54:16;22.40;97.90
25192;DHT22;13143;50.924;5.320;2023-06-26T06:56:43;22.40;97.70
25192;DHT22;13143;50.924;5.320;2023-06-26T06:59:09;22.40;97.60
25192;DHT22;13143;50.924;5.320;2023-06-26T07:01:35;22.40;97.70
25192;DHT22;13143;50.924;5.320;2023-06-26T07:04:01;22.40;97.40
25192;DHT22;13143;50.924;5.320;2023-06-26T07:06:29;22.40;97.30
25192;DHT22;13143;50.924;5.320;2023-06-26T07:08:56;22.40;97.30
25192;DHT22;13143;50.924;5.320;2023-06-26T07:11:22;22.40;97.20
25192;DHT22;13143;50.924;5.320;2023-06-26T07:13:48;22.40;97.20
25192;DHT22;13143;50.924;5.320;2023-06-26T07:16:14;22.40;97.20
25192;DHT22;13143;50.924;5.320;2023-06-26T07:18:40;22.40;97.20
25192;DHT22;13143;50.924;5.320;2023-06-26T07:21:07;22.40;97.20
25192;DHT22;13143;50.924;5.320;2023-06-26T07:23:33;22.40;97.00
25192;DHT22;13143;50.924;5.320;2023-06-26T07:25:59;22.40;96.80
25192;DHT22;13143;50.924;5.320;2023-06-26T07:28:25;22.40;96.80
25192;DHT22;13143;50.924;5.320;2023-06-26T07:30:51;22.50;96.80
25192;DHT22;13143;50.924;5.320;2023-06-26T07:33:17;22.50;96.80
25192;DHT22;13143;50.924;5.320;2023-06-26T07:35:44;22.50;97.10
25192;DHT22;13143;50.924;5.320;2023-06-26T07:38:10;22.50;96.90
25192;DHT22;13143;50.924;5.320;2023-06-26T07:40:36;22.50;96.80
25192;DHT22;13143;50.924;5.320;2023-06-26T07:43:02;22.50;96.70
25192;DHT22;13143;50.924;5.320;2023-06-26T07:45:28;22.50;96.80
25192;DHT22;13143;50.924;5.320;2023-06-26T07:47:54;22.50;96.70
25192;DHT22;13143;50.924;5.320;2023-06-26T07:50:20;22.50;96.60
25192;DHT22;13143;50.924;5.320;2023-06-26T07:52:48;22.50;96.40
25192;DHT22;13143;50.924;5.320;2023-06-26T07:55:14;22.60;96.30
25192;DHT22;13143;50.924;5.320;2023-06-26T07:57:40;22.60;96.30
25192;DHT22;13143;50.924;5.320;2023-06-26T08:00:07;22.60;96.30
25192;DHT22;13143;50.924;5.320;2023-06-26T08:02:33;22.60;96.10
25192;DHT22;13143;50.924;5.320;2023-06-26T08:04:59;22.60;96.10
25192;DHT22;13143;50.924;5.320;2023-06-26T08:07:25;22.60;96.30
25192;DHT22;13143;50.924;5.320;2023-06-26T08:09:51;22.60;96.10
25192;DHT22;13143;50.924;5.320;2023-06-26T08:12:18;22.60;96.20
25192;DHT22;13143;50.924;5.320;2023-06-26T08:14:44;22.60;95.90
25192;DHT22;13143;50.924;5.320;2023-06-26T08:17:10;22.60;95.90
25192;DHT22;13143;50.924;5.320;2023-06-26T08:19:36;22.60;96.20
25192;DHT22;13143;50.924;5.320;2023-06-26T08:22:02;22.60;95.90
25192;DHT22;13143;50.924;5.320;2023-06-26T08:24:29;22.60;95.80
25192;DHT22;13143;50.924;5.320;2023-06-26T08:26:55;22.70;96.00
25192;DHT22;13143;50.924;5.320;2023-06-26T08:29:21;22.70;96.00
25192;DHT22;13143;50.924;5.320;2023-06-26T08:31:47;22.70;96.10
25192;DHT22;13143;50.924;5.320;2023-06-26T08:34:13;22.70;96.00
25192;DHT22;13143;50.924;5.320;2023-06-26T08:36:39;22.70;96.10
25192;DHT22;13143;50.924;5.320;2023-06-26T08:39:05;22.70;96.10
25192;DHT22;13143;50.924;5.320;2023-06-26T08:41:31;22.70;96.00
25192;DHT22;13143;50.924;5.320;2023-06-26T08:43:58;22.70;96.20
25192;DHT22;13143;50.924;5.320;2023-06-26T08:46:24;22.70;96.30
25192;DHT22;13143;50.924;5.320;2023-06-26T08:49:05;22.80;96.30
25192;DHT22;13143;50.924;5.320;2023-06-26T08:51:34;22.80;96.10
25192;DHT22;13143;50.924;5.320;2023-06-26T08:54:04;22.80;96.10
25192;DHT22;13143;50.924;5.320;2023-06-26T08:56:42;22.80;96.00
25192;DHT22;13143;50.924;5.320;2023-06-26T08:59:09;22.80;96.00
25192;DHT22;13143;50.924;5.320;2023-06-26T09:01:40;22.90;96.20
25192;DHT22;13143;50.924;5.320;2023-06-26T09:04:07;22.90;96.00
25192;DHT22;13143;50.924;5.320;2023-06-26T09:06:33;22.90;95.90
25192;DHT22;13143;50.924;5.320;2023-06-26T09:08:59;22.90;95.90
25192;DHT22;13143;50.924;5.320;2023-06-26T09:11:25;22.90;95.60
25192;DHT22;13143;50.924;5.320;2023-06-26T09:13:52;22.90;95.40
25192;DHT22;13143;50.924;5.320;2023-06-26T09:16:24;22.90;95.20
25192;DHT22;13143;50.924;5.320;2023-06-26T09:18:52;22.90;95.00
25192;DHT22;13143;50.924;5.320;2023-06-26T09:21:18;22.90;94.70
25192;DHT22;13143;50.924;5.320;2023-06-26T09:23:45;22.90;94.50
25192;DHT22;13143;50.924;5.320;2023-06-26T09:26:14;23.00;94.40
25192;DHT22;13143;50.924;5.320;2023-06-26T09:28:42;23.00;94.30
25192;DHT22;13143;50.924;5.320;2023-06-26T09:31:09;23.00;94.20
25192;DHT22;13143;50.924;5.320;2023-06-26T09:33:37;23.00;94.10
25192;DHT22;13143;50.924;5.320;2023-06-26T09:36:07;23.00;94.30
25192;DHT22;13143;50.924;5.320;2023-06-26T09:38:37;23.00;94.10
25192;DHT22;13143;50.924;5.320;2023-06-26T09:41:03;23.10;93.80
25192;DHT22;13143;50.924;5.320;2023-06-26T09:43:29;23.10;93.50
25192;DHT22;13143;50.924;5.320;2023-06-26T09:45:57;23.10;93.30
25192;DHT22;13143;50.924;5.320;2023-06-26T09:48:24;23.10;93.20
25192;DHT22;13143;50.924;5.320;2023-06-26T09:50:50;23.10;93.10
25192;DHT22;13143;50.924;5.320;2023-06-26T09:53:16;23.10;93.10
25192;DHT22;13143;50.924;5.320;2023-06-26T09:55:44;23.10;93.00
25192;DHT22;13143;50.924;5.320;2023-06-26T09:58:10;23.10;92.50
25192;DHT22;13143;50.924;5.320;2023-06-26T10:00:41;23.20;92.30
25192;DHT22;13143;50.924;5.320;2023-06-26T10:03:09;23.20;92.00
25192;DHT22;13143;50.924;5.320;2023-06-26T10:05:35;23.20;91.60
25192;DHT22;13143;50.924;5.320;2023-06-26T10:08:03;23.20;91.50
25192;DHT22;13143;50.924;5.320;2023-06-26T10:10:35;23.20;91.30
25192;DHT22;13143;50.924;5.320;2023-06-26T10:13:11;23.20;90.70
25192;DHT22;13143;50.924;5.320;2023-06-26T10:15:40;23.20;90.50
25192;DHT22;13143;50.924;5.320;2023-06-26T10:18:10;23.20;90.50
25192;DHT22;13143;50.924;5.320;2023-06-26T10:20:36;23.20;90.60
25192;DHT22;13143;50.924;5.320;2023-06-26T10:23:05;23.20;90.40
25192;DHT22;13143;50.924;5.320;2023-06-26T10:25:37;23.30;89.70
25192;DHT22;13143;50.924;5.320;2023-06-26T10:28:06;23.30;89.50
25192;DHT22;13143;50.924;5.320;2023-06-26T10:30:34;23.30;89.30
25192;DHT22;13143;50.924;5.320;2023-06-26T10:33:02;23.30;89.10
25192;DHT22;13143;50.924;5.320;2023-06-26T10:35:30;23.30;88.50
25192;DHT22;13143;50.924;5.320;2023-06-26T10:38:03;23.30;88.20
25192;DHT22;13143;50.924;5.320;2023-06-26T10:40:43;23.30;88.20
25192;DHT22;13143;50.924;5.320;2023-06-26T10:43:12;23.30;88.10
25192;DHT22;13143;50.924;5.320;2023-06-26T10:45:49;23.30;86.60
25192;DHT22;13143;50.924;5.320;2023-06-26T10:48:20;23.30;85.90
25192;DHT22;13143;50.924;5.320;2023-06-26T10:50:47;23.30;85.40
25192;DHT22;13143;50.924;5.320;2023-06-26T10:58:31;23.40;82.90
25192;DHT22;13143;50.924;5.320;2023-06-26T11:01:18;23.40;82.30
25192;DHT22;13143;50.924;5.320;2023-06-26T11:06:24;23.40;81.10
25192;DHT22;13143;50.924;5.320;2023-06-26T11:08:52;23.40;80.70
25192;DHT22;13143;50.924;5.320;2023-06-26T11:11:22;23.40;80.20
25192;DHT22;13143;50.924;5.320;2023-06-26T11:14:08;23.40;79.90
25192;DHT22;13143;50.924;5.320;2023-06-26T11:16:36;23.40;79.30
25192;DHT22;13143;50.924;5.320;2023-06-26T11:19:02;23.40;79.00
25192;DHT22;13143;50.924;5.320;2023-06-26T11:21:29;23.40;79.60
25192;DHT22;13143;50.924;5.320;2023-06-26T11:23:56;23.40;80.10
25192;DHT22;13143;50.924;5.320;2023-06-26T11:26:26;23.50;80.80
25192;DHT22;13143;50.924;5.320;2023-06-26T11:28:54;23.50;80.70
25192;DHT22;13143;50.924;5.320;2023-06-26T11:31:25;23.50;79.80
25192;DHT22;13143;50.924;5.320;2023-06-26T11:33:53;23.50;79.40
25192;DHT22;13143;50.924;5.320;2023-06-26T11:36:23;23.50;78.90
25192;DHT22;13143;50.924;5.320;2023-06-26T11:41:25;23.60;78.10
25192;DHT22;13143;50.924;5.320;2023-06-26T11:43:52;23.60;77.70
25192;DHT22;13143;50.924;5.320;2023-06-26T11:46:22;23.50;77.20
25192;DHT22;13143;50.924;5.320;2023-06-26T11:48:48;23.60;76.90
25192;DHT22;13143;50.924;5.320;2023-06-26T11:51:15;23.60;76.70
25192;DHT22;13143;50.924;5.320;2023-06-26T11:53:42;23.60;77.20
25192;DHT22;13143;50.924;5.320;2023-06-26T11:56:16;23.60;77.80
25192;DHT22;13143;50.924;5.320;2023-06-26T11:59:05;23.60;77.90
25192;DHT22;13143;50.924;5.320;2023-06-26T12:04:00;23.60;76.80
25192;DHT22;13143;50.924;5.320;2023-06-26T12:06:28;23.60;77.00
25192;DHT22;13143;50.924;5.320;2023-06-26T12:08:55;23.60;76.70
25192;DHT22;13143;50.924;5.320;2023-06-26T12:11:23;23.70;76.10
25192;DHT22;13143;50.924;5.320;2023-06-26T12:13:50;23.70;75.70
25192;DHT22;13143;50.924;5.320;2023-06-26T12:16:17;23.70;75.60
25192;DHT22;13143;50.924;5.320;2023-06-26T12:18:43;23.70;74.40
25192;DHT22;13143;50.924;5.320;2023-06-26T12:21:28;23.70;74.00
25192;DHT22;13143;50.924;5.320;2023-06-26T12:24:00;23.80;74.00
25192;DHT22;13143;50.924;5.320;2023-06-26T12:26:28;23.70;73.60
25192;DHT22;13143;50.924;5.320;2023-06-26T12:29:06;23.80;74.10
25192;DHT22;13143;50.924;5.320;2023-06-26T12:31:33;23.80;74.20
25192;DHT22;13143;50.924;5.320;2023-06-26T12:33:59;23.80;74.50
25192;DHT22;13143;50.924;5.320;2023-06-26T12:36:26;23.80;74.20
25192;DHT22;13143;50.924;5.320;2023-06-26T12:38:55;23.80;73.40
25192;DHT22;13143;50.924;5.320;2023-06-26T12:41:24;23.80;74.00
25192;DHT22;13143;50.924;5.320;2023-06-26T12:43:55;23.80;73.50
25192;DHT22;13143;50.924;5.320;2023-06-26T12:46:36;23.80;72.20
25192;DHT22;13143;50.924;5.320;2023-06-26T12:49:02;23.80;72.60
25192;DHT22;13143;50.924;5.320;2023-06-26T12:51:28;23.80;71.80
25192;DHT22;13143;50.924;5.320;2023-06-26T12:53:54;23.90;72.30
25192;DHT22;13143;50.924;5.320;2023-06-26T12:56:21;23.90;72.50
25192;DHT22;13143;50.924;5.320;2023-06-26T12:58:47;23.80;72.40
25192;DHT22;13143;50.924;5.320;2023-06-26T13:01:13;23.90;72.50
25192;DHT22;13143;50.924;5.320;2023-06-26T13:03:42;23.90;72.70
25192;DHT22;13143;50.924;5.320;2023-06-26T13:06:08;23.90;72.70
25192;DHT22;13143;50.924;5.320;2023-06-26T13:08:35;23.90;71.80
25192;DHT22;13143;50.924;5.320;2023-06-26T13:11:01;23.90;72.10
25192;DHT22;13143;50.924;5.320;2023-06-26T13:13:28;24.00;70.90
25192;DHT22;13143;50.924;5.320;2023-06-26T13:15:54;24.00;70.60
25192;DHT22;13143;50.924;5.320;2023-06-26T13:18:20;24.00;70.90
25192;DHT22;13143;50.924;5.320;2023-06-26T13:20:46;24.00;70.80
25192;DHT22;13143;50.924;5.320;2023-06-26T13:23:12;24.00;71.00
25192;DHT22;13143;50.924;5.320;2023-06-26T13:25:38;24.00;71.20
25192;DHT22;13143;50.924;5.320;2023-06-26T13:28:04;24.00;71.20
25192;DHT22;13143;50.924;5.320;2023-06-26T13:30:30;24.00;70.40
25192;DHT22;13143;50.924;5.320;2023-06-26T13:32:57;24.00;70.40
25192;DHT22;13143;50.924;5.320;2023-06-26T13:35:23;24.00;69.70
25192;DHT22;13143;50.924;5.320;2023-06-26T13:37:49;24.00;69.80
25192;DHT22;13143;50.924;5.320;2023-06-26T13:40:15;24.00;70.50
25192;DHT22;13143;50.924;5.320;2023-06-26T13:42:41;24.00;69.70
25192;DHT22;13143;50.924;5.320;2023-06-26T13:45:08;24.00;69.80
25192;DHT22;13143;50.924;5.320;2023-06-26T13:47:34;24.00;69.10
25192;DHT22;13143;50.924;5.320;2023-06-26T13:50:00;24.00;69.40
25192;DHT22;13143;50.924;5.320;2023-06-26T13:52:26;24.00;69.50
25192;DHT22;13143;50.924;5.320;2023-06-26T13:54:52;24.00;69.70
25192;DHT22;13143;50.924;5.320;2023-06-26T13:57:18;24.10;69.80
25192;DHT22;13143;50.924;5.320;2023-06-26T13:59:48;24.10;69.50
25192;DHT22;13143;50.924;5.320;2023-06-26T14:02:14;24.10;68.30
25192;DHT22;13143;50.924;5.320;2023-06-26T14:04:40;24.10;68.40
25192;DHT22;13143;50.924;5.320;2023-06-26T14:07:07;24.10;69.00
25192;DHT22;13143;50.924;5.320;2023-06-26T14:09:33;24.10;68.90
25192;DHT22;13143;50.924;5.320;2023-06-26T14:11:59;24.10;67.80
25192;DHT22;13143;50.924;5.320;2023-06-26T14:14:25;24.10;66.30
25192;DHT22;13143;50.924;5.320;2023-06-26T14:16:51;24.20;66.80
25192;DHT22;13143;50.924;5.320;2023-06-26T14:19:17;24.20;66.80
25192;DHT22;13143;50.924;5.320;2023-06-26T14:21:43;24.20;67.40
25192;DHT22;13143;50.924;5.320;2023-06-26T14:24:09;24.20;67.00
25192;DHT22;13143;50.924;5.320;2023-06-26T14:26:36;24.20;67.80
25192;DHT22;13143;50.924;5.320;2023-06-26T14:29:03;24.20;68.20
25192;DHT22;13143;50.924;5.320;2023-06-26T14:31:29;24.20;68.20
25192;DHT22;13143;50.924;5.320;2023-06-26T14:33:55;24.20;68.20
25192;DHT22;13143;50.924;5.320;2023-06-26T14:36:21;24.20;68.50
25192;DHT22;13143;50.924;5.320;2023-06-26T14:38:47;24.20;68.10
25192;DHT22;13143;50.924;5.320;2023-06-26T14:41:13;24.20;68.40
25192;DHT22;13143;50.924;5.320;2023-06-26T14:43:39;24.30;68.10
25192;DHT22;13143;50.924;5.320;2023-06-26T14:46:06;24.30;67.50
25192;DHT22;13143;50.924;5.320;2023-06-26T14:48:32;24.30;66.50
25192;DHT22;13143;50.924;5.320;2023-06-26T14:50:58;24.30;65.80
25192;DHT22;13143;50.924;5.320;2023-06-26T14:53:26;24.30;65.40
25192;DHT22;13143;50.924;5.320;2023-06-26T14:55:52;24.20;65.50
25192;DHT22;13143;50.924;5.320;2023-06-26T14:58:18;24.30;66.30
25192;DHT22;13143;50.924;5.320;2023-06-26T15:00:44;24.30;66.60
25192;DHT22;13143;50.924;5.320;2023-06-26T15:03:10;24.30;66.50
25192;DHT22;13143;50.924;5.320;2023-06-26T15:05:36;24.40;66.70
25192;DHT22;13143;50.924;5.320;2023-06-26T15:08:02;24.30;66.50
25192;DHT22;13143;50.924;5.320;2023-06-26T15:10:28;24.40;66.60
25192;DHT22;13143;50.924;5.320;2023-06-26T15:12:55;24.40;65.90
25192;DHT22;13143;50.924;5.320;2023-06-26T15:15:21;24.40;65.90
25192;DHT22;13143;50.924;5.320;2023-06-26T15:17:48;24.40;65.70
25192;DHT22;13143;50.924;5.320;2023-06-26T15:20:14;24.40;66.40
25192;DHT22;13143;50.924;5.320;2023-06-26T15:22:40;24.40;66.00
25192;DHT22;13143;50.924;5.320;2023-06-26T15:25:07;24.40;66.50
25192;DHT22;13143;50.924;5.320;2023-06-26T15:27:33;24.40;66.70
25192;DHT22;13143;50.924;5.320;2023-06-26T15:29:59;24.40;66.90
25192;DHT22;13143;50.924;5.320;2023-06-26T15:32:25;24.40;65.60
25192;DHT22;13143;50.924;5.320;2023-06-26T15:34:51;24.50;66.00
25192;DHT22;13143;50.924;5.320;2023-06-26T15:37:17;24.50;66.30
25192;DHT22;13143;50.924;5.320;2023-06-26T15:39:43;24.50;66.00
25192;DHT22;13143;50.924;5.320;2023-06-26T15:42:09;24.50;66.30
25192;DHT22;13143;50.924;5.320;2023-06-26T15:44:35;24.50;66.30
25192;DHT22;13143;50.924;5.320;2023-06-26T15:47:01;24.50;66.30